地図

経路データ

SID SEASON NUMBER BASIN SUBBASIN NAME ISO_TIME NATURE LAT LON WMO_WIND WMO_PRES WMO_AGENCY TRACK_TYPE DIST2LAND LANDFALL IFLAG USA_AGENCY USA_ATCF_ID USA_LAT USA_LON USA_RECORD USA_STATUS USA_WIND USA_PRES USA_SSHS USA_R34_NE USA_R34_SE USA_R34_SW USA_R34_NW USA_R50_NE USA_R50_SE USA_R50_SW USA_R50_NW USA_R64_NE USA_R64_SE USA_R64_SW USA_R64_NW USA_POCI USA_ROCI USA_RMW USA_EYE TOKYO_LAT TOKYO_LON TOKYO_GRADE TOKYO_WIND TOKYO_PRES TOKYO_R50_DIR TOKYO_R50_LONG TOKYO_R50_SHORT TOKYO_R30_DIR TOKYO_R30_LONG TOKYO_R30_SHORT TOKYO_LAND CMA_LAT CMA_LON CMA_CAT CMA_WIND CMA_PRES HKO_LAT HKO_LON HKO_CAT HKO_WIND HKO_PRES NEWDELHI_LAT NEWDELHI_LON NEWDELHI_GRADE NEWDELHI_WIND NEWDELHI_PRES NEWDELHI_CI NEWDELHI_DP NEWDELHI_POCI REUNION_LAT REUNION_LON REUNION_TYPE REUNION_WIND REUNION_PRES REUNION_TNUM REUNION_CI REUNION_RMW REUNION_R34_NE REUNION_R34_SE REUNION_R34_SW REUNION_R34_NW REUNION_R50_NE REUNION_R50_SE REUNION_R50_SW REUNION_R50_NW REUNION_R64_NE REUNION_R64_SE REUNION_R64_SW REUNION_R64_NW BOM_LAT BOM_LON BOM_TYPE BOM_WIND BOM_PRES BOM_TNUM BOM_CI BOM_RMW BOM_R34_NE BOM_R34_SE BOM_R34_SW BOM_R34_NW BOM_R50_NE BOM_R50_SE BOM_R50_SW BOM_R50_NW BOM_R64_NE BOM_R64_SE BOM_R64_SW BOM_R64_NW BOM_ROCI BOM_POCI BOM_EYE BOM_POS_METHOD BOM_PRES_METHOD NADI_LAT NADI_LON NADI_CAT NADI_WIND NADI_PRES WELLINGTON_LAT WELLINGTON_LON WELLINGTON_WIND WELLINGTON_PRES DS824_LAT DS824_LON DS824_STAGE DS824_WIND DS824_PRES TD9636_LAT TD9636_LON TD9636_STAGE TD9636_WIND TD9636_PRES TD9635_LAT TD9635_LON TD9635_WIND TD9635_PRES TD9635_ROCI NEUMANN_LAT NEUMANN_LON NEUMANN_CLASS NEUMANN_WIND NEUMANN_PRES MLC_LAT MLC_LON MLC_CLASS MLC_WIND MLC_PRES USA_GUST BOM_GUST BOM_GUST_PER REUNION_GUST REUNION_GUST_PER USA_SEAHGT USA_SEARAD_NE USA_SEARAD_SE USA_SEARAD_SW USA_SEARAD_NW STORM_SPEED STORM_DIR
1908217N21128 1908 29 WP MM NOT_NAMED 1908-08-03 16:00:00 NR 20.5000 128.400 main 681 681 __________O___ -1 20.5000 128.400 7 22 0
1908217N21128 1908 29 WP MM NOT_NAMED 1908-08-03 18:00:00 NR 21.2445 128.398 main 710 707 __________P___ -1 21.2445 128.398 7 22 360
1908217N21128 1908 29 WP MM NOT_NAMED 1908-08-03 21:00:00 NR 22.3199 128.395 main 707 673 __________P___ -1 22.3199 128.395 7 21 359
1908217N21128 1908 29 WP MM NOT_NAMED 1908-08-04 00:00:00 NR 23.2880 128.395 main 673 654 __________P___ -1 23.2880 128.395 7 18 0
1908217N21128 1908 29 WP MM NOT_NAMED 1908-08-04 03:00:00 NR 24.0840 128.398 main 654 651 __________P___ -1 24.0840 128.398 7 15 0
1908217N21128 1908 29 WP MM NOT_NAMED 1908-08-04 04:00:00 NR 24.3000 128.400 main 651 646 __________O___ -1 24.3000 128.400 3 11 0
1908217N21128 1908 29 WP MM NOT_NAMED 1908-08-04 06:00:00 NR 24.6508 128.406 main 646 644 __________P___ -1 24.6508 128.406 3 9 0
1908217N21128 1908 29 WP MM NOT_NAMED 1908-08-04 09:00:00 NR 25.0133 128.421 main 644 644 __________P___ -1 25.0133 128.421 3 6 3
1908217N21128 1908 29 WP MM NOT_NAMED 1908-08-04 12:00:00 NR 25.2488 128.446 main 644 644 __________P___ -1 25.2488 128.446 3 4 8
1908217N21128 1908 29 WP MM NOT_NAMED 1908-08-04 15:00:00 NR 25.4353 128.484 main 654 650 __________P___ -1 25.4353 128.484 3 4 12
1908217N21128 1908 29 WP MM NOT_NAMED 1908-08-04 16:00:00 NR 25.5000 128.500 main 650 629 __________O___ -1 25.5000 128.500 4 5 13
1908217N21128 1908 29 WP MM NOT_NAMED 1908-08-04 18:00:00 NR 25.6995 128.538 main 629 594 __________P___ -1 25.6995 128.538 4 6 11
1908217N21128 1908 29 WP MM NOT_NAMED 1908-08-04 21:00:00 NR 25.9928 128.609 main 594 559 __________P___ -1 25.9928 128.609 4 6 13
1908217N21128 1908 29 WP MM NOT_NAMED 1908-08-05 00:00:00 NR 26.2704 128.689 main 559 535 __________P___ -1 26.2704 128.689 4 6 16
1908217N21128 1908 29 WP MM NOT_NAMED 1908-08-05 03:00:00 NR 26.5230 128.773 main 535 524 __________P___ -1 26.5230 128.773 4 5 16
1908217N21128 1908 29 WP MM NOT_NAMED 1908-08-05 04:00:00 NR 26.6000 128.800 main 524 510 __________O___ -1 26.6000 128.800 4 5 18
1908217N21128 1908 29 WP MM NOT_NAMED 1908-08-05 06:00:00 NR 26.7421 128.850 main 510 489 __________P___ -1 26.7421 128.850 4 4 19
1908217N21128 1908 29 WP MM NOT_NAMED 1908-08-05 09:00:00 NR 26.9301 128.925 main 489 465 __________P___ -1 26.9301 128.925 4 4 20
1908217N21128 1908 29 WP MM NOT_NAMED 1908-08-05 12:00:00 NR 27.0963 129.000 main 465 451 __________P___ -1 27.0963 129.000 4 3 22
1908217N21128 1908 29 WP MM NOT_NAMED 1908-08-05 15:00:00 NR 27.2499 129.075 main 451 441 __________P___ -1 27.2499 129.075 4 3 24
1908217N21128 1908 29 WP MM NOT_NAMED 1908-08-05 16:00:00 NR 27.3000 129.100 main 441 430 __________O___ -1 27.3000 129.100 4 3 23
1908217N21128 1908 29 WP MM NOT_NAMED 1908-08-05 18:00:00 NR 27.4000 129.150 main 430 406 __________P___ -1 27.4000 129.150 4 3 24
1908217N21128 1908 29 WP MM NOT_NAMED 1908-08-05 21:00:00 NR 27.5500 129.225 main 406 392 __________P___ -1 27.5500 129.225 4 3 24
1908217N21128 1908 29 WP MM NOT_NAMED 1908-08-06 00:00:00 NR 27.7000 129.300 main 392 368 __________P___ -1 27.7000 129.300 4 3 23
1908217N21128 1908 29 WP MM NOT_NAMED 1908-08-06 03:00:00 NR 27.8500 129.375 main 368 368 __________P___ -1 27.8500 129.375 4 3 25
1908217N21128 1908 29 WP MM NOT_NAMED 1908-08-06 04:00:00 NR 27.9000 129.400 main 368 __________O___ -1 27.9000 129.400 4 3 27

デジタル台風データ・検索

IBTrACS Databaseについて

本データベースは、米国NOAAが公開する1842年以降の世界の熱帯低気圧のベストトラックデータアーカイブInternational Best Track Archive for Climate Stewardship (IBTrACS)を、ウェブで閲覧しやすい形式に変換したものです。

最終更新日:2021-11-26